Time;durP1;ratioP1;P1;durP2;ratioP2;P2;SDS_P1;SDS_P2;PMS_P1;PMS_P2;Temp;Humidity;BMP_temperature;BMP_pressure;BME280_temperature;BME280_humidity;BME280_pressure;Samples;Min_cycle;Max_cycle;Signal;HPM_P1;HPM_P2
2023/04/07 00:00:53;;;;;;;24.48;21.80;;;7.70;99.90;;;;;;5089061;28;20346;-77
2023/04/07 00:03:19;;;;;;;27.23;21.17;;;7.70;99.90;;;;;;5089267;28;20044;-78
2023/04/07 00:05:45;;;;;;;27.98;20.88;;;7.70;99.90;;;;;;5072898;28;20037;-79
2023/04/07 00:08:10;;;;;;;23.63;20.08;;;7.80;99.90;;;;;;5072797;28;20044;-78
2023/04/07 00:10:36;;;;;;;24.35;21.13;;;7.70;99.90;;;;;;5073187;28;20130;-79
2023/04/07 00:13:02;;;;;;;25.70;21.92;;;7.70;99.90;;;;;;5073044;28;20514;-78
2023/04/07 00:15:28;;;;;;;27.48;21.63;;;7.60;99.90;;;;;;5072859;28;20048;-79
2023/04/07 00:17:53;;;;;;;27.02;22.83;;;7.60;99.90;;;;;;5088385;28;20115;-79
2023/04/07 00:20:19;;;;;;;27.35;22.70;;;7.60;99.90;;;;;;5072311;28;20083;-79
2023/04/07 00:22:45;;;;;;;28.10;24.50;;;7.60;99.90;;;;;;5072693;28;20132;-79
2023/04/07 00:25:11;;;;;;;28.75;22.70;;;7.70;99.90;;;;;;5072855;28;20343;-79
2023/04/07 00:27:36;;;;;;;28.67;22.75;;;7.70;99.90;;;;;;5088325;28;20053;-78
2023/04/07 00:30:03;;;;;;;25.02;21.35;;;7.70;99.90;;;;;;5105400;28;20048;-78
2023/04/07 00:32:28;;;;;;;30.77;23.45;;;7.70;99.90;;;;;;5072709;28;20040;-79
2023/04/07 00:34:54;;;;;;;30.70;23.23;;;7.70;99.90;;;;;;5072135;28;20491;-80
2023/04/07 00:37:20;;;;;;;28.23;23.70;;;7.70;99.90;;;;;;5072173;28;20139;-80
2023/04/07 00:39:46;;;;;;;29.90;22.45;;;7.60;99.90;;;;;;5072951;28;20124;-76
2023/04/07 00:42:11;;;;;;;27.95;23.60;;;7.60;99.90;;;;;;5073455;28;20445;-79
2023/04/07 00:44:37;;;;;;;28.23;24.48;;;7.50;99.90;;;;;;5072955;28;20499;-76
2023/04/07 00:47:03;;;;;;;29.38;24.35;;;7.50;99.90;;;;;;5073418;28;20053;-80
2023/04/07 00:49:30;;;;;;;29.13;24.00;;;6.80;99.90;;;;;;5072549;28;20460;-78
2023/04/07 00:51:57;;;;;;;31.08;24.73;;;7.60;99.90;;;;;;5072524;28;20052;-79
2023/04/07 00:54:23;;;;;;;27.77;23.83;;;7.60;99.90;;;;;;5072522;28;20048;-79
2023/04/07 00:56:49;;;;;;;29.00;23.90;;;7.60;99.90;;;;;;5072871;28;20045;-77
2023/04/07 00:59:16;;;;;;;29.35;24.33;;;7.60;99.90;;;;;;5072297;28;20123;-79
2023/04/07 01:02:05;;;;;;;28.38;24.10;;;7.60;99.90;;;;;;5072565;28;20052;-78
2023/04/07 01:04:49;;;;;;;27.58;23.73;;;7.50;99.90;;;;;;5072583;28;20131;-79
2023/04/07 01:07:17;;;;;;;;;;;7.50;99.90;;;;;;5072606;28;20052;-78
2023/04/07 01:09:54;;;;;;;26.40;23.45;;;7.40;99.90;;;;;;5072205;28;19964;-78
2023/04/07 01:12:33;;;;;;;28.92;23.13;;;7.50;99.90;;;;;;5072164;28;20053;-78
2023/04/07 01:15:06;;;;;;;28.27;23.65;;;7.50;99.90;;;;;;5072375;28;20063;-79
2023/04/07 01:17:35;;;;;;;32.22;23.90;;;7.60;99.90;;;;;;5072227;28;20052;-79
2023/04/07 01:20:07;;;;;;;26.60;23.75;;;7.60;99.90;;;;;;5071255;28;20070;-79
2023/04/07 01:22:54;;;;;;;29.58;25.05;;;7.60;99.90;;;;;;5071942;28;20051;-79
2023/04/07 01:25:32;;;;;;;27.73;22.05;;;7.50;99.90;;;;;;5071677;28;20056;-78
2023/04/07 01:28:24;;;;;;;31.95;26.33;;;7.50;99.90;;;;;;5072076;28;20175;-80
2023/04/07 01:30:55;;;;;;;30.50;25.02;;;7.50;99.90;;;;;;5071105;28;20053;-79
2023/04/07 01:33:22;;;;;;;32.30;27.55;;;7.50;99.90;;;;;;5072092;28;20044;-79
2023/04/07 01:35:50;;;;;;;34.33;26.35;;;7.50;99.90;;;;;;5071862;28;20119;-77
2023/04/07 01:38:16;;;;;;;33.78;27.15;;;7.60;99.90;;;;;;5071237;28;20052;-79
2023/04/07 01:40:43;;;;;;;31.55;28.20;;;7.60;99.90;;;;;;5071752;28;20496;-79
2023/04/07 01:43:10;;;;;;;31.60;26.10;;;7.50;99.90;;;;;;5071558;28;20094;-78
2023/04/07 01:45:37;;;;;;;32.72;27.00;;;7.60;99.90;;;;;;5072164;28;20060;-79
2023/04/07 01:48:06;;;;;;;34.33;28.60;;;7.50;99.90;;;;;;5070963;28;20049;-80
2023/04/07 01:50:33;;;;;;;35.42;29.98;;;7.50;99.90;;;;;;5075615;28;20044;-77
2023/04/07 01:52:59;;;;;;;34.13;29.67;;;7.50;99.90;;;;;;5075530;28;20532;-78
2023/04/07 01:55:25;;;;;;;35.22;29.00;;;7.50;99.90;;;;;;5074243;28;20073;-79
2023/04/07 01:57:53;;;;;;;35.55;28.77;;;7.60;99.90;;;;;;5075328;28;20045;-77
2023/04/07 02:00:18;;;;;;;36.47;28.83;;;7.60;99.90;;;;;;5075396;28;20044;-77
2023/04/07 02:02:47;;;;;;;32.00;28.30;;;7.50;99.90;;;;;;5075107;28;20051;-77
2023/04/07 02:05:19;;;;;;;35.72;29.63;;;7.50;99.90;;;;;;5074109;28;20086;-79
2023/04/07 02:07:52;;;;;;;39.65;31.38;;;7.50;99.90;;;;;;5075375;28;20071;-78
2023/04/07 02:10:20;;;;;;;;;;;8.30;99.90;;;;;;5076159;28;20048;-79
2023/04/07 02:12:46;;;;;;;37.67;29.50;;;7.50;99.90;;;;;;5074872;28;20017;-78
2023/04/07 02:15:14;;;;;;;40.53;35.60;;;7.50;99.90;;;;;;5075022;28;20120;-77
2023/04/07 02:17:44;;;;;;;37.45;30.30;;;7.60;99.90;;;;;;5075334;28;20048;-77
2023/04/07 02:20:11;;;;;;;36.92;32.40;;;7.60;99.90;;;;;;5074640;28;20055;-77
2023/04/07 02:22:38;;;;;;;34.33;27.63;;;7.60;99.90;;;;;;5074908;28;20048;-79
2023/04/07 02:25:23;;;;;;;31.88;27.10;;;7.60;99.90;;;;;;5074867;28;20040;-79
2023/04/07 02:27:49;;;;;;;34.63;29.08;;;7.50;99.90;;;;;;5074723;28;20465;-78
2023/04/07 02:30:15;;;;;;;37.67;30.70;;;7.50;99.90;;;;;;5074337;28;20075;-79
2023/04/07 02:32:41;;;;;;;37.70;33.53;;;7.50;99.90;;;;;;5074652;28;20040;-78
2023/04/07 02:35:07;;;;;;;38.08;30.33;;;7.50;99.90;;;;;;5074127;28;20044;-76
2023/04/07 02:37:32;;;;;;;35.72;29.20;;;7.50;99.90;;;;;;5073564;28;20057;-78
2023/04/07 02:39:58;;;;;;;39.13;30.50;;;7.50;99.90;;;;;;5074585;28;20040;-78
2023/04/07 02:42:24;;;;;;;41.70;32.75;;;7.40;99.90;;;;;;5074083;28;20064;-79
2023/04/07 02:44:50;;;;;;;36.47;31.67;;;7.50;99.90;;;;;;5073538;28;20052;-77
2023/04/07 02:47:15;;;;;;;39.13;34.20;;;7.50;99.90;;;;;;5073302;28;20049;-78
2023/04/07 02:49:41;;;;;;;36.10;31.88;;;7.60;99.90;;;;;;5074060;28;20040;-78
2023/04/07 02:52:07;;;;;;;37.40;29.73;;;7.60;99.90;;;;;;5089889;28;20050;-78
2023/04/07 02:54:33;;;;;;;38.20;29.48;;;7.60;99.90;;;;;;5073790;28;20433;-78
2023/04/07 02:56:58;;;;;;;37.53;31.05;;;7.60;99.90;;;;;;5090277;28;20070;-77
2023/04/07 02:59:24;;;;;;;38.25;29.77;;;7.50;99.90;;;;;;5073915;28;20037;-78
2023/04/07 03:01:50;;;;;;;37.95;28.98;;;7.50;99.90;;;;;;5089813;28;20656;-78
2023/04/07 03:04:15;;;;;;;38.35;32.05;;;7.50;99.90;;;;;;5074506;28;20449;-78
2023/04/07 03:06:41;;;;;;;39.80;31.55;;;7.50;99.90;;;;;;5074281;28;20102;-77
2023/04/07 03:09:07;;;;;;;34.65;27.15;;;7.50;99.90;;;;;;5089896;28;20132;-78
2023/04/07 03:11:32;;;;;;;31.02;27.67;;;7.50;99.90;;;;;;5072963;28;20052;-78
2023/04/07 03:13:58;;;;;;;35.60;30.05;;;7.50;99.90;;;;;;5073779;28;20044;-78
2023/04/07 03:16:23;;;;;;;34.22;28.75;;;7.50;99.90;;;;;;5074283;28;20171;-79
2023/04/07 03:18:49;;;;;;;38.75;29.25;;;7.40;99.90;;;;;;5074083;28;20386;-78
2023/04/07 03:21:15;;;;;;;33.65;29.17;;;7.40;99.90;;;;;;5073537;28;20076;-78
2023/04/07 03:23:41;;;;;;;33.00;29.50;;;7.40;99.90;;;;;;5073623;28;20102;-79
2023/04/07 03:26:06;;;;;;;34.88;28.17;;;7.40;99.90;;;;;;5072258;28;20041;-77
2023/04/07 03:28:32;;;;;;;33.67;30.05;;;7.40;99.90;;;;;;5073751;28;20040;-78
2023/04/07 03:30:58;;;;;;;36.30;28.70;;;7.40;99.90;;;;;;5073573;28;20498;-78
2023/04/07 03:33:23;;;;;;;36.35;29.20;;;7.40;99.90;;;;;;5073602;28;20509;-77
2023/04/07 03:35:49;;;;;;;38.97;29.25;;;7.40;99.90;;;;;;5089294;28;20059;-78
2023/04/07 03:38:15;;;;;;;37.08;29.63;;;7.40;99.90;;;;;;5073928;28;20131;-78
2023/04/07 03:40:40;;;;;;;31.75;26.30;;;7.40;99.90;;;;;;5074868;28;20033;-77
2023/04/07 03:43:11;;;;;;;33.85;28.23;;;7.40;99.90;;;;;;5081794;28;20049;-77
2023/04/07 03:45:37;;;;;;;33.53;28.15;;;7.30;99.90;;;;;;5080297;28;20057;-77
2023/04/07 03:48:03;;;;;;;33.03;28.05;;;7.30;99.90;;;;;;5081128;28;20128;-77
2023/04/07 03:50:29;;;;;;;31.25;26.80;;;7.40;99.90;;;;;;5078174;28;20485;-77
2023/04/07 03:52:54;;;;;;;30.65;25.55;;;7.40;99.90;;;;;;5074475;28;20457;-77
2023/04/07 03:55:21;;;;;;;35.70;29.55;;;7.30;99.90;;;;;;5073739;28;20051;-76
2023/04/07 03:57:46;;;;;;;28.52;24.88;;;7.30;99.90;;;;;;5073696;28;20111;-77
2023/04/07 04:00:12;;;;;;;31.38;26.60;;;7.30;99.90;;;;;;5073462;28;20473;-77
2023/04/07 04:02:38;;;;;;;32.60;26.30;;;7.30;99.90;;;;;;5072100;28;20096;-78
2023/04/07 04:05:04;;;;;;;29.23;24.08;;;7.30;99.90;;;;;;5089809;28;20080;-77
2023/04/07 04:07:31;;;;;;;31.90;26.92;;;7.30;99.90;;;;;;5073330;28;20106;-77
2023/04/07 04:09:57;;;;;;;31.55;25.65;;;7.40;99.90;;;;;;5073616;28;20047;-77
2023/04/07 04:12:22;;;;;;;34.20;26.48;;;7.30;99.90;;;;;;5072391;28;20044;-77
2023/04/07 04:14:48;;;;;;;27.20;23.65;;;7.30;99.90;;;;;;5072891;28;20045;-77
2023/04/07 04:17:14;;;;;;;31.33;25.50;;;7.20;99.90;;;;;;5088637;28;20052;-78
2023/04/07 04:19:40;;;;;;;26.23;22.27;;;7.30;99.90;;;;;;5072030;28;20068;-78
2023/04/07 04:22:06;;;;;;;31.70;25.95;;;7.30;99.90;;;;;;5072367;28;20052;-77
2023/04/07 04:24:31;;;;;;;30.70;23.10;;;7.30;99.90;;;;;;5072858;28;20070;-78
2023/04/07 04:26:57;;;;;;;30.60;23.35;;;7.30;99.90;;;;;;5073062;28;20079;-77
2023/04/07 04:29:23;;;;;;;30.67;23.38;;;7.30;99.90;;;;;;5072809;28;20073;-77
2023/04/07 04:31:48;;;;;;;29.70;24.08;;;7.30;99.90;;;;;;5088292;28;20052;-78
2023/04/07 04:34:14;;;;;;;27.45;23.65;;;7.30;99.90;;;;;;5088553;28;20480;-77
2023/04/07 04:36:40;;;;;;;30.08;24.38;;;7.30;99.90;;;;;;5071592;28;20366;-77
2023/04/07 04:39:06;;;;;;;26.67;23.35;;;7.30;99.90;;;;;;5073158;28;20120;-78
2023/04/07 04:41:31;;;;;;;29.55;23.75;;;7.20;99.90;;;;;;5072309;28;20456;-78
2023/04/07 04:43:57;;;;;;;25.80;21.15;;;7.20;99.90;;;;;;5072285;28;20059;-78
2023/04/07 04:46:23;;;;;;;31.38;24.30;;;7.20;99.90;;;;;;5072211;28;20497;-78
2023/04/07 04:48:50;;;;;;;26.08;22.27;;;7.20;99.90;;;;;;5072157;28;20040;-76
2023/04/07 04:51:16;;;;;;;30.05;22.08;;;7.20;99.90;;;;;;5072435;28;20083;-76
2023/04/07 04:53:42;;;;;;;25.13;21.95;;;7.20;99.90;;;;;;5072570;28;20056;-76
2023/04/07 04:56:07;;;;;;;27.58;22.10;;;7.30;99.90;;;;;;5088014;28;20088;-75
2023/04/07 04:58:34;;;;;;;26.75;20.42;;;7.20;99.90;;;;;;5071828;28;20484;-77
2023/04/07 05:01:00;;;;;;;25.27;20.92;;;7.20;99.90;;;;;;5071821;28;20521;-76
2023/04/07 05:03:27;;;;;;;28.42;22.17;;;7.30;99.90;;;;;;5071959;28;20045;-78
2023/04/07 05:05:53;;;;;;;22.65;19.98;;;7.30;99.90;;;;;;5072011;28;20082;-77
2023/04/07 05:08:19;;;;;;;23.63;20.40;;;7.30;99.90;;;;;;5071453;28;20052;-77
2023/04/07 05:10:45;;;;;;;25.45;19.80;;;7.30;99.90;;;;;;5071794;28;20039;-77
2023/04/07 05:13:11;;;;;;;28.67;21.63;;;7.20;99.90;;;;;;5071849;28;20049;-76
2023/04/07 05:15:37;;;;;;;25.73;22.48;;;7.30;99.90;;;;;;5071899;28;20128;-76
2023/04/07 05:18:02;;;;;;;24.80;20.95;;;7.30;99.90;;;;;;5071976;28;20110;-76
2023/04/07 05:20:28;;;;;;;25.38;21.20;;;7.30;99.90;;;;;;5070601;28;20040;-77
2023/04/07 05:22:54;;;;;;;24.55;21.35;;;7.30;99.90;;;;;;5071777;28;20048;-77
2023/04/07 05:25:20;;;;;;;26.95;20.83;;;7.30;99.90;;;;;;5091562;28;20132;-77
2023/04/07 05:27:45;;;;;;;24.65;20.75;;;7.30;99.90;;;;;;5075795;28;20556;-77
2023/04/07 05:30:11;;;;;;;26.67;21.70;;;7.30;99.90;;;;;;5075810;28;20079;-77
2023/04/07 05:32:37;;;;;;;29.00;23.20;;;7.30;99.90;;;;;;5074768;28;20075;-77
2023/04/07 05:35:03;;;;;;;27.05;22.67;;;7.30;99.90;;;;;;5075765;28;20477;-78
2023/04/07 05:37:29;;;;;;;28.15;20.50;;;7.30;99.90;;;;;;5075612;28;20041;-77
2023/04/07 05:39:55;;;;;;;27.70;21.35;;;7.30;99.90;;;;;;5074500;28;20032;-78
2023/04/07 05:42:21;;;;;;;24.50;21.45;;;7.30;99.90;;;;;;5075474;28;20061;-78
2023/04/07 05:44:46;;;;;;;23.90;19.63;;;7.30;99.90;;;;;;5075207;28;20181;-77
2023/04/07 05:47:12;;;;;;;26.35;22.17;;;7.30;99.90;;;;;;5075723;28;20040;-77
2023/04/07 05:49:44;;;;;;;26.77;21.42;;;7.30;99.90;;;;;;5091510;28;20592;-77
2023/04/07 05:52:11;;;;;;;27.88;21.38;;;7.30;99.90;;;;;;5075249;28;20135;-77
2023/04/07 05:54:38;;;;;;;28.75;23.60;;;7.30;99.90;;;;;;5075313;28;20045;-77
2023/04/07 05:57:03;;;;;;;29.50;22.83;;;7.30;99.90;;;;;;5074914;28;20458;-77
2023/04/07 05:59:29;;;;;;;28.60;23.48;;;7.30;99.90;;;;;;5090670;28;20052;-77
2023/04/07 06:01:55;;;;;;;27.05;21.38;;;7.30;99.90;;;;;;5073910;28;20049;-78
2023/04/07 06:04:21;;;;;;;30.65;23.08;;;7.40;99.90;;;;;;5074988;28;20051;-78
2023/04/07 06:06:46;;;;;;;26.90;21.40;;;7.30;99.90;;;;;;5075099;28;20056;-77
2023/04/07 06:09:12;;;;;;;25.00;20.67;;;7.40;99.90;;;;;;5074880;28;20044;-76
2023/04/07 06:11:38;;;;;;;26.02;20.42;;;7.40;99.90;;;;;;5090961;28;20155;-77
2023/04/07 06:14:03;;;;;;;25.23;21.30;;;7.40;99.90;;;;;;5075141;28;20433;-77
2023/04/07 06:16:29;;;;;;;30.30;23.05;;;7.40;99.90;;;;;;5074759;28;20055;-76
2023/04/07 06:18:55;;;;;;;25.75;21.48;;;7.50;99.90;;;;;;5074635;28;20032;-78
2023/04/07 06:21:20;;;;;;;26.27;20.70;;;7.50;99.90;;;;;;5074608;28;20052;-78
2023/04/07 06:23:46;;;;;;;27.48;21.90;;;7.50;99.90;;;;;;5090431;28;20048;-77
2023/04/07 06:26:12;;;;;;;28.60;22.42;;;7.50;99.90;;;;;;5090681;28;20552;-78
2023/04/07 06:28:38;;;;;;;26.20;20.10;;;7.50;99.90;;;;;;5074613;28;20051;-76
2023/04/07 06:31:04;;;;;;;25.30;21.33;;;7.60;99.90;;;;;;5074441;28;20040;-77
2023/04/07 06:33:30;;;;;;;28.80;21.20;;;7.60;99.90;;;;;;5074610;28;20135;-77
2023/04/07 06:35:56;;;;;;;28.25;21.45;;;7.60;99.90;;;;;;5073781;28;20087;-77
2023/04/07 06:38:22;;;;;;;28.95;21.42;;;7.60;99.90;;;;;;5074541;28;20416;-77
2023/04/07 06:40:48;;;;;;;23.20;20.45;;;7.60;99.90;;;;;;5074304;28;20124;-76
2023/04/07 06:43:13;;;;;;;22.17;19.65;;;7.60;99.90;;;;;;5074380;28;20048;-77
2023/04/07 06:45:39;;;;;;;25.70;20.05;;;7.70;99.90;;;;;;5074310;28;20052;-76
2023/04/07 06:48:05;;;;;;;23.92;19.83;;;7.70;99.90;;;;;;5074714;28;20454;-77
2023/04/07 06:50:31;;;;;;;25.95;20.52;;;7.80;99.90;;;;;;5075302;28;20047;-76
2023/04/07 06:52:56;;;;;;;26.23;21.02;;;7.80;99.90;;;;;;5079560;28;20040;-78
2023/04/07 06:55:22;;;;;;;26.08;20.98;;;7.90;99.90;;;;;;5080245;28;20131;-77
2023/04/07 06:57:51;;;;;;;24.35;20.63;;;7.90;99.90;;;;;;5082853;28;20041;-78
2023/04/07 07:00:17;;;;;;;24.45;20.08;;;7.90;99.90;;;;;;5078502;28;20410;-78
2023/04/07 07:02:43;;;;;;;27.13;20.80;;;7.90;99.90;;;;;;5074539;28;20208;-77
2023/04/07 07:05:10;;;;;;;27.73;22.02;;;8.00;99.90;;;;;;5074293;28;20084;-78
2023/04/07 07:07:36;;;;;;;24.98;20.60;;;8.00;99.90;;;;;;5075168;28;20060;-78
2023/04/07 07:10:02;;;;;;;26.58;20.92;;;8.10;99.90;;;;;;5073799;28;20060;-79
2023/04/07 07:12:28;;;;;;;22.17;18.95;;;8.10;99.90;;;;;;5074301;28;20087;-79
2023/04/07 07:14:53;;;;;;;25.42;21.33;;;8.20;99.90;;;;;;5074435;28;20040;-78
2023/04/07 07:17:19;;;;;;;25.08;21.65;;;8.20;99.90;;;;;;5073870;28;20052;-77
2023/04/07 07:19:45;;;;;;;22.73;18.75;;;8.30;99.90;;;;;;5072933;28;20385;-79
2023/04/07 07:22:10;;;;;;;21.08;18.73;;;8.30;99.90;;;;;;5073711;28;20078;-80
2023/04/07 07:24:36;;;;;;;24.73;18.88;;;8.30;99.90;;;;;;5073737;28;20044;-76
2023/04/07 07:27:02;;;;;;;23.38;17.50;;;8.40;99.90;;;;;;5089880;28;20064;-79
2023/04/07 07:29:28;;;;;;;22.92;17.00;;;8.50;99.90;;;;;;5073637;28;20086;-78
2023/04/07 07:31:54;;;;;;;25.90;19.65;;;8.60;99.90;;;;;;5073739;28;20045;-78
2023/04/07 07:34:19;;;;;;;22.92;18.15;;;8.60;99.90;;;;;;5073250;28;20541;-82
2023/04/07 07:36:45;;;;;;;21.35;16.00;;;8.60;99.90;;;;;;5073802;28;20084;-79
2023/04/07 07:39:11;;;;;;;17.75;15.20;;;8.60;99.90;;;;;;5073301;28;20466;-75
2023/04/07 07:41:36;;;;;;;21.98;15.90;;;8.50;99.90;;;;;;5073719;28;20049;-81
2023/04/07 07:44:02;;;;;;;19.95;16.52;;;8.50;99.90;;;;;;5073847;28;20052;-79
2023/04/07 07:46:28;;;;;;;19.00;15.95;;;8.50;99.90;;;;;;5072542;28;20048;-81
2023/04/07 07:48:55;;;;;;;18.08;14.45;;;8.50;99.90;;;;;;5089099;28;20097;-77
2023/04/07 07:51:20;;;;;;;22.25;17.10;;;8.50;99.90;;;;;;5073106;28;20048;-83
2023/04/07 07:53:46;;;;;;;19.88;15.48;;;8.50;99.90;;;;;;5073634;28;20131;-79
2023/04/07 07:56:12;;;;;;;21.10;16.52;;;8.40;99.90;;;;;;5072783;28;20127;-81
2023/04/07 07:58:38;;;;;;;19.88;16.08;;;8.50;99.90;;;;;;5072742;28;20045;-82
2023/04/07 08:01:04;;;;;;;18.52;15.63;;;8.50;99.90;;;;;;5073253;28;20451;-80
2023/04/07 08:03:29;;;;;;;18.90;15.35;;;8.50;99.90;;;;;;5072807;28;20052;-79
2023/04/07 08:05:55;;;;;;;18.02;13.98;;;8.50;99.90;;;;;;5072924;28;20045;-81
2023/04/07 08:08:21;;;;;;;17.27;14.20;;;8.60;99.90;;;;;;5072971;28;20041;-78
2023/04/07 08:10:47;;;;;;;16.45;13.50;;;8.70;99.90;;;;;;5071202;28;20534;-79
2023/04/07 08:13:13;;;;;;;16.42;14.40;;;8.70;99.90;;;;;;5072741;28;20083;-83
2023/04/07 08:15:39;;;;;;;14.38;12.27;;;8.80;99.90;;;;;;5088124;28;20044;-79
2023/04/07 08:18:05;;;;;;;18.98;13.35;;;8.90;99.90;;;;;;5072653;28;20059;-77
2023/04/07 08:20:32;;;;;;;16.55;13.85;;;8.90;99.90;;;;;;5071367;28;20128;-79
2023/04/07 08:22:58;;;;;;;17.45;14.02;;;9.00;99.90;;;;;;5072562;28;20438;-81
2023/04/07 08:25:24;;;;;;;16.10;13.40;;;9.00;99.90;;;;;;5072656;28;20052;-80
2023/04/07 08:27:50;;;;;;;19.60;14.38;;;8.60;99.90;;;;;;5072171;28;20056;-75
2023/04/07 08:30:16;;;;;;;18.60;14.40;;;9.10;99.90;;;;;;5088520;28;20037;-80
2023/04/07 08:32:43;;;;;;;17.20;14.25;;;9.10;99.90;;;;;;5072470;28;20051;-80
2023/04/07 08:35:10;;;;;;;19.13;13.65;;;9.10;99.90;;;;;;5072519;28;20477;-79
2023/04/07 08:37:37;;;;;;;20.50;16.75;;;9.20;99.90;;;;;;5072552;28;20545;-83
2023/04/07 08:40:03;;;;;;;21.33;17.42;;;9.20;99.90;;;;;;5072296;28;20037;-79
2023/04/07 08:42:31;;;;;;;21.50;15.60;;;9.40;99.90;;;;;;5072735;28;20190;-78
2023/04/07 08:45:01;;;;;;;20.60;17.45;;;9.50;99.90;;;;;;5072829;28;20127;-82
2023/04/07 08:47:30;;;;;;;24.08;17.88;;;9.50;99.90;;;;;;5071544;28;20052;-79
2023/04/07 08:50:07;;;;;;;21.40;17.65;;;9.70;99.90;;;;;;5072273;28;20470;-81
2023/04/07 08:52:54;;;;;;;20.52;17.33;;;9.80;99.90;;;;;;5072445;28;20398;-76
2023/04/07 08:55:20;;;;;;;19.75;16.27;;;9.90;99.90;;;;;;5070962;28;20214;-77
2023/04/07 08:57:46;;;;;;;18.33;15.27;;;10.00;99.90;;;;;;5074209;28;20072;-81
2023/04/07 09:00:13;;;;;;;24.48;18.42;;;10.00;99.90;;;;;;5076891;28;20044;-81
2023/04/07 09:02:43;;;;;;;19.10;15.57;;;10.20;99.90;;;;;;5075307;28;20056;-80
2023/04/07 09:05:10;;;;;;;20.10;15.63;;;10.20;99.90;;;;;;5076591;28;20040;-81
2023/04/07 09:07:37;;;;;;;17.35;13.82;;;10.20;99.90;;;;;;5075514;28;20052;-82
2023/04/07 09:10:04;;;;;;;17.90;14.73;;;10.30;99.90;;;;;;5076209;28;20116;-79
2023/04/07 09:12:33;;;;;;;19.20;16.02;;;10.50;99.90;;;;;;5076063;28;20106;-79
2023/04/07 09:14:59;;;;;;;19.00;15.30;;;10.60;99.90;;;;;;5076166;28;20055;-84
2023/04/07 09:17:26;;;;;;;20.35;15.48;;;10.70;99.90;;;;;;5075968;28;20044;-80
2023/04/07 09:20:01;;;;;;;18.45;15.20;;;10.80;99.90;;;;;;5076060;28;20087;-81
2023/04/07 09:22:53;;;;;;;19.58;15.00;;;10.70;99.90;;;;;;5075692;28;20407;-76
2023/04/07 09:25:25;;;;;;;16.65;13.70;;;10.60;99.90;;;;;;5073811;28;20394;-78
2023/04/07 09:28:02;;;;;;;20.60;16.25;;;10.50;99.90;;;;;;5075034;28;20485;-82
2023/04/07 09:30:29;;;;;;;16.45;13.15;;;10.50;99.90;;;;;;5075771;28;20057;-81
2023/04/07 09:32:56;;;;;;;20.83;14.13;;;10.40;99.90;;;;;;5076233;28;20120;-80
2023/04/07 09:35:22;;;;;;;18.23;13.90;;;10.30;99.90;;;;;;5075734;28;20112;-80
2023/04/07 09:38:08;;;;;;;17.40;13.00;;;10.20;99.90;;;;;;5076347;28;20095;-81
2023/04/07 09:40:35;;;;;;;17.85;14.45;;;10.10;99.90;;;;;;5075012;28;20425;-83
2023/04/07 09:43:02;;;;;;;20.00;15.25;;;10.00;99.90;;;;;;5075759;28;20060;-81
2023/04/07 09:45:38;;;;;;;14.68;12.35;;;10.00;99.90;;;;;;5075848;28;20049;-80
2023/04/07 09:48:07;;;;;;;17.77;13.18;;;9.90;99.90;;;;;;5076083;28;20048;-78
2023/04/07 09:50:35;;;;;;;15.68;12.85;;;9.90;99.90;;;;;;5075379;28;20486;-80
2023/04/07 09:53:03;;;;;;;16.23;12.60;;;9.90;99.90;;;;;;5075421;28;20048;-79
2023/04/07 09:55:30;;;;;;;18.17;13.70;;;10.00;99.90;;;;;;5075903;28;20080;-77
2023/04/07 09:57:56;;;;;;;15.73;10.98;;;10.00;99.90;;;;;;5075790;28;20147;-81
2023/04/07 10:00:23;;;;;;;12.32;11.02;;;10.10;99.90;;;;;;5081985;28;20059;-75
2023/04/07 10:02:50;;;;;;;15.93;11.60;;;10.20;99.90;;;;;;5086182;28;20047;-76
2023/04/07 10:05:16;;;;;;;13.35;9.93;;;11.00;99.90;;;;;;5086100;28;20052;-79
2023/04/07 10:07:42;;;;;;;11.27;8.60;;;11.60;99.90;;;;;;5086573;28;20037;-79
2023/04/07 10:10:09;;;;;;;11.50;8.20;;;12.30;99.90;;;;;;5082187;28;20072;-76
2023/04/07 10:12:36;;;;;;;12.13;9.18;;;12.90;99.90;;;;;;5079296;28;20045;-79
2023/04/07 10:15:03;;;;;;;10.73;8.23;;;13.70;99.90;;;;;;5077828;28;20080;-78
2023/04/07 10:17:31;;;;;;;10.25;9.00;;;13.90;99.90;;;;;;5076089;28;20053;-80
2023/04/07 10:20:00;;;;;;;13.60;9.15;;;13.40;99.90;;;;;;5075959;28;20053;-79
2023/04/07 10:22:27;;;;;;;10.73;8.25;;;12.80;99.90;;;;;;5075252;28;20041;-75
2023/04/07 10:25:03;;;;;;;11.77;8.52;;;12.40;99.90;;;;;;5074590;28;20044;-77
2023/04/07 10:27:34;;;;;;;9.43;7.93;;;12.10;99.90;;;;;;5074890;28;20044;-76
2023/04/07 10:30:03;;;;;;;10.93;8.35;;;11.80;99.90;;;;;;5074344;28;20056;-76
2023/04/07 10:32:29;;;;;;;14.52;9.35;;;11.70;99.90;;;;;;5074994;28;20486;-79
2023/04/07 10:34:56;;;;;;;14.77;9.65;;;11.60;99.90;;;;;;5075267;28;20080;-81
2023/04/07 10:37:24;;;;;;;12.20;8.98;;;11.50;99.90;;;;;;5074157;28;20534;-78
2023/04/07 10:40:17;;;;;;;11.63;9.40;;;11.30;99.90;;;;;;5074910;28;20044;-79
2023/04/07 10:42:45;;;;;;;16.35;10.40;;;11.20;99.90;;;;;;5074686;28;20057;-80
2023/04/07 10:45:12;;;;;;;15.43;10.50;;;11.30;99.90;;;;;;5074568;28;20056;-78
2023/04/07 10:47:57;;;;;;;13.65;10.35;;;11.30;99.90;;;;;;5074661;28;20067;-78
2023/04/07 10:50:24;;;;;;;12.07;9.45;;;11.40;99.90;;;;;;5074437;28;20047;-79
2023/04/07 10:53:09;;;;;;;12.27;9.10;;;11.40;99.90;;;;;;5074374;28;20076;-78
2023/04/07 10:55:45;;;;;;;12.02;8.85;;;11.40;99.90;;;;;;5074493;28;20519;-81
2023/04/07 10:58:24;;;;;;;10.80;9.48;;;11.50;99.90;;;;;;5075017;28;20052;-81
2023/04/07 11:01:02;;;;;;;13.85;9.38;;;11.60;99.90;;;;;;5074318;28;20114;-79
2023/04/07 11:03:30;;;;;;;13.60;11.07;;;11.70;99.90;;;;;;5073947;28;20510;-80
2023/04/07 11:06:10;;;;;;;10.45;8.68;;;11.90;99.90;;;;;;5074274;28;20086;-79
2023/04/07 11:08:43;;;;;;;11.70;9.30;;;11.80;99.90;;;;;;5074282;28;20051;-81
2023/04/07 11:11:14;;;;;;;10.45;8.30;;;11.80;99.90;;;;;;5073977;28;20049;-78
2023/04/07 11:13:47;;;;;;;11.23;8.88;;;11.80;99.90;;;;;;5073724;28;20453;-77
2023/04/07 11:16:15;;;;;;;11.10;8.88;;;11.80;99.90;;;;;;5074196;28;20052;-78
2023/04/07 11:18:42;;;;;;;12.05;10.25;;;11.80;99.90;;;;;;5073875;28;20150;-79
2023/04/07 11:21:08;;;;;;;9.85;8.48;;;11.80;99.90;;;;;;5072478;28;20055;-79
2023/04/07 11:23:41;;;;;;;10.90;8.98;;;12.00;99.90;;;;;;5072948;28;20049;-79
2023/04/07 11:26:10;;;;;;;12.27;10.00;;;12.20;99.90;;;;;;5074249;28;20080;-78
2023/04/07 11:28:48;;;;;;;13.18;10.10;;;12.50;99.90;;;;;;5073333;28;20445;-80
2023/04/07 11:31:30;;;;;;;10.48;8.95;;;12.60;99.90;;;;;;5074201;28;20041;-79
2023/04/07 11:34:02;;;;;;;12.00;9.27;;;12.60;99.90;;;;;;5073473;28;20040;-80
2023/04/07 11:36:33;;;;;;;13.95;9.55;;;12.60;99.90;;;;;;5106282;28;20480;-79
2023/04/07 11:39:00;;;;;;;8.77;7.90;;;12.60;99.90;;;;;;5073332;28;20045;-79
2023/04/07 11:41:29;;;;;;;10.45;7.95;;;12.60;99.90;;;;;;5073633;28;20046;-79
2023/04/07 11:44:04;;;;;;;9.70;8.27;;;12.50;99.90;;;;;;5073289;28;20053;-78
2023/04/07 11:46:30;;;;;;;10.05;7.90;;;12.50;99.90;;;;;;5073340;28;20131;-78
2023/04/07 11:49:08;;;;;;;9.05;7.32;;;12.50;99.90;;;;;;5073562;28;20083;-79
2023/04/07 11:51:33;;;;;;;9.30;7.05;;;12.60;99.90;;;;;;5073174;28;20044;-80
2023/04/07 11:53:59;;;;;;;9.52;6.70;;;12.80;99.90;;;;;;5072916;28;20051;-77
2023/04/07 11:56:26;;;;;;;10.32;6.60;;;13.10;99.90;;;;;;5072911;28;20119;-79
2023/04/07 11:58:54;;;;;;;10.02;7.00;;;13.30;99.90;;;;;;5073296;28;20051;-77
2023/04/07 12:01:23;;;;;;;9.40;7.25;;;13.60;99.90;;;;;;5073054;28;20052;-78
2023/04/07 12:03:55;;;;;;;9.55;7.10;;;13.60;99.90;;;;;;5073549;28;20056;-78
2023/04/07 12:06:37;;;;;;;9.15;6.13;;;13.70;99.90;;;;;;5072958;28;20053;-77
2023/04/07 12:09:06;;;;;;;8.82;6.68;;;13.70;99.90;;;;;;5072772;28;20049;-77
2023/04/07 12:11:33;;;;;;;9.52;7.15;;;13.60;99.90;;;;;;5072889;28;20050;-77
2023/04/07 12:14:00;;;;;;;9.02;6.82;;;13.50;99.90;;;;;;5071656;28;20047;-77
2023/04/07 12:16:25;;;;;;;8.27;6.90;;;13.40;99.90;;;;;;5071783;28;20428;-78
2023/04/07 12:18:51;;;;;;;8.18;6.88;;;13.40;99.90;;;;;;5071940;28;20044;-78
2023/04/07 12:21:20;;;;;;;8.50;6.75;;;13.40;99.90;;;;;;5072655;28;20408;-77
2023/04/07 12:23:46;;;;;;;8.93;6.85;;;13.40;99.90;;;;;;5072486;28;20127;-78
2023/04/07 12:26:12;;;;;;;7.13;5.50;;;13.40;99.90;;;;;;5072917;28;20458;-76
2023/04/07 12:28:38;;;;;;;8.48;6.88;;;13.40;99.90;;;;;;5072800;28;20080;-78
2023/04/07 12:31:04;;;;;;;11.18;6.72;;;13.50;99.90;;;;;;5072487;28;20091;-75
2023/04/07 12:33:30;;;;;;;8.65;6.90;;;13.60;99.90;;;;;;5071573;28;20365;-76
2023/04/07 12:35:57;;;;;;;8.20;6.30;;;13.70;99.90;;;;;;5072088;28;20090;-77
2023/04/07 12:38:23;;;;;;;8.43;7.15;;;13.70;99.90;;;;;;5072327;28;20071;-77
2023/04/07 12:40:49;;;;;;;8.40;6.35;;;13.60;99.90;;;;;;5072189;28;20041;-77